Terminal Aerodrome Forecast
Issued by NWS

Home | Current Version | Previous Version | Text Only | Print | Product List | Glossary On
Versions: 1 2 3 4 5 6 7 8 9 10 11 12 13 14 15 16 17 18 19 20 21 22 23
000
FTAK31 PAFA 271738
TAFAOM
TAF
PAOM 271738Z 2718/2818 00000KT P6SM -RA FEW006 SCT010 OVC015
     FM280300 16008KT P6SM SCT035 BKN080
     FM280900 VRB04KT P6SM SCT080
     FM281200 00000KT P6SM MIFG SCT080=

USA.gov is the U.S. government's official web portal to all federal, state and local government web resources and services.